Time;durP1;ratioP1;P1;durP2;ratioP2;P2;SDS_P1;SDS_P2;PMS_P1;PMS_P2;Temp;Humidity;BMP_temperature;BMP_pressure;BME280_temperature;BME280_humidity;BME280_pressure;Samples;Min_cycle;Max_cycle;Signal;HPM_P1;HPM_P2
2021/12/30 00:00:29;;;;;;;55.35;9.30;;;7.80;99.90;;;;;;5081931;28;20456;-39
2021/12/30 00:02:55;;;;;;;70.97;10.10;;;7.80;99.90;;;;;;5072314;28;20546;-39
2021/12/30 00:05:21;;;;;;;53.63;8.07;;;7.80;99.90;;;;;;5054738;28;20040;-39
2021/12/30 00:07:47;;;;;;;61.63;9.10;;;7.80;99.90;;;;;;5072888;28;20037;-39
2021/12/30 00:10:12;;;;;;;62.95;10.73;;;8.10;99.90;;;;;;5071634;28;20558;-39
2021/12/30 00:12:38;;;;;;;73.40;9.57;;;7.70;99.90;;;;;;5072041;28;20045;-40
2021/12/30 00:15:07;;;;;;;62.97;9.52;;;7.70;99.90;;;;;;5071858;28;20040;-39
2021/12/30 00:17:33;;;;;;;64.07;7.90;;;8.00;99.90;;;;;;5072101;28;20410;-40
2021/12/30 00:20:00;;;;;;;68.75;9.38;;;7.70;99.90;;;;;;5071896;28;20033;-39
2021/12/30 00:22:27;;;;;;;64.72;9.75;;;7.70;99.90;;;;;;5072031;28;20056;-39
2021/12/30 00:24:53;;;;;;;64.38;8.85;;;7.60;99.90;;;;;;5071977;28;20399;-39
2021/12/30 00:27:19;;;;;;;63.30;10.43;;;7.70;99.90;;;;;;5072005;28;20056;-39
2021/12/30 00:29:44;;;;;;;70.82;10.05;;;8.30;99.90;;;;;;5071826;28;20052;-40
2021/12/30 00:32:10;;;;;;;69.07;9.75;;;7.60;99.90;;;;;;5071435;28;20446;-39
2021/12/30 00:34:36;;;;;;;67.30;9.63;;;7.70;99.90;;;;;;5071490;28;20049;-40
2021/12/30 00:37:02;;;;;;;86.97;10.57;;;7.70;99.90;;;;;;5071633;28;20097;-39
2021/12/30 00:39:28;;;;;;;86.35;12.15;;;7.70;99.90;;;;;;5088792;28;20098;-39
2021/12/30 00:41:54;;;;;;;85.07;11.38;;;8.30;99.90;;;;;;5091635;28;20490;-39
2021/12/30 00:44:19;;;;;;;107.05;16.98;;;7.40;99.90;;;;;;5091692;28;20551;-39
2021/12/30 00:46:45;;;;;;;92.22;14.88;;;7.70;99.90;;;;;;5091486;28;20405;-39
2021/12/30 00:49:13;;;;;;;91.45;13.18;;;7.60;99.90;;;;;;5090853;28;20043;-39
2021/12/30 00:51:39;;;;;;;91.85;12.93;;;7.60;99.90;;;;;;5091404;28;20118;-39
2021/12/30 00:54:05;;;;;;;107.80;15.75;;;7.40;99.90;;;;;;5091335;28;20058;-40
2021/12/30 00:56:31;;;;;;;76.70;13.88;;;7.60;99.90;;;;;;5091095;28;20482;-40
2021/12/30 00:58:56;;;;;;;107.88;14.82;;;7.50;99.90;;;;;;5091324;28;20631;-40
2021/12/30 01:01:24;;;;;;;96.97;14.30;;;7.70;99.90;;;;;;5072837;28;20052;-39
2021/12/30 01:03:51;;;;;;;75.53;13.05;;;7.50;99.90;;;;;;5091367;28;20052;-39
2021/12/30 01:06:17;;;;;;;75.82;11.45;;;7.50;99.90;;;;;;5091170;28;20113;-39
2021/12/30 01:08:42;;;;;;;78.93;11.35;;;8.10;99.90;;;;;;5091659;28;20059;-39
2021/12/30 01:11:08;;;;;;;73.80;10.73;;;7.50;99.90;;;;;;5091071;28;20595;-39
2021/12/30 01:13:40;;;;;;;78.85;9.77;;;7.50;99.90;;;;;;5091566;28;20040;-39
2021/12/30 01:16:15;;;;;;;86.53;10.27;;;7.50;99.90;;;;;;5091105;28;20040;-39
2021/12/30 01:18:55;;;;;;;72.53;9.63;;;7.50;99.90;;;;;;5091340;28;20050;-40
2021/12/30 01:21:23;;;;;;;71.13;9.55;;;7.70;99.90;;;;;;5091118;28;20530;-39
2021/12/30 01:23:49;;;;;;;88.22;9.82;;;7.50;99.90;;;;;;5091129;28;20089;-39
2021/12/30 01:26:15;;;;;;;68.72;10.98;;;7.40;99.90;;;;;;5090801;28;20432;-40
2021/12/30 01:28:41;;;;;;;72.57;8.68;;;7.40;99.90;;;;;;5090461;28;20113;-39
2021/12/30 01:31:09;;;;;;;70.82;8.80;;;8.20;99.90;;;;;;5090710;28;20052;-40
2021/12/30 01:33:34;;;;;;;68.68;9.50;;;7.40;99.90;;;;;;5090494;28;20062;-39
2021/12/30 01:36:00;;;;;;;68.63;8.63;;;7.30;99.90;;;;;;5090516;28;20549;-40
2021/12/30 01:38:26;;;;;;;71.72;9.68;;;7.30;99.90;;;;;;5087246;28;20128;-39
2021/12/30 01:40:54;;;;;;;73.82;11.02;;;7.20;99.90;;;;;;5090811;28;20123;-40
2021/12/30 01:43:20;;;;;;;70.18;8.18;;;8.30;99.90;;;;;;5090399;28;20043;-39
2021/12/30 01:45:46;;;;;;;82.72;10.20;;;7.20;99.90;;;;;;5090389;28;20075;-39
2021/12/30 01:48:13;;;;;;;68.93;8.27;;;6.80;99.90;;;;;;5090467;28;20087;-39
2021/12/30 01:50:40;;;;;;;84.70;9.68;;;7.20;99.90;;;;;;5090257;28;20048;-40
2021/12/30 01:53:07;;;;;;;73.45;9.18;;;7.50;99.90;;;;;;5090156;28;20376;-40
2021/12/30 01:55:35;;;;;;;56.83;10.10;;;7.30;99.90;;;;;;5090195;28;20401;-40
2021/12/30 01:58:02;;;;;;;72.13;9.60;;;7.90;99.90;;;;;;5090381;28;20042;-40
2021/12/30 02:00:30;;;;;;;77.75;10.13;;;7.40;99.90;;;;;;5088909;28;20115;-40
2021/12/30 02:02:55;;;;;;;69.93;9.80;;;7.40;99.90;;;;;;5090137;28;20047;-39
2021/12/30 02:05:21;;;;;;;62.53;9.18;;;7.30;99.90;;;;;;5089921;28;20187;-39
2021/12/30 02:07:47;;;;;;;67.47;9.02;;;8.30;99.90;;;;;;5089879;28;20082;-39
2021/12/30 02:10:14;;;;;;;60.67;8.25;;;7.40;99.90;;;;;;5090143;28;20079;-39
2021/12/30 02:12:42;;;;;;;70.97;8.75;;;7.40;99.90;;;;;;5090028;28;20436;-39
2021/12/30 02:15:15;;;;;;;66.95;9.65;;;7.40;99.90;;;;;;5090008;28;20115;-39
2021/12/30 02:17:41;;;;;;;70.10;10.45;;;7.40;99.90;;;;;;5089673;28;20032;-39
2021/12/30 02:20:11;;;;;;;67.18;8.48;;;7.40;99.90;;;;;;5089822;28;20086;-39
2021/12/30 02:22:37;;;;;;;64.95;7.95;;;7.40;99.90;;;;;;5089829;28;20158;-39
2021/12/30 02:25:04;;;;;;;74.30;8.80;;;7.40;99.90;;;;;;5089755;28;20131;-39
2021/12/30 02:27:31;;;;;;;80.70;9.40;;;7.40;99.90;;;;;;5089330;28;20095;-39
2021/12/30 02:29:57;;;;;;;77.93;9.48;;;8.00;99.90;;;;;;5089836;28;20119;-39
2021/12/30 02:32:25;;;;;;;89.20;10.70;;;7.40;99.90;;;;;;5089680;28;20059;-39
2021/12/30 02:34:51;;;;;;;67.35;8.63;;;8.40;99.90;;;;;;5089498;28;20069;-39
2021/12/30 02:37:18;;;;;;;75.72;9.77;;;7.70;99.90;;;;;;5087429;28;20032;-40
2021/12/30 02:39:49;;;;;;;75.47;9.38;;;7.30;99.90;;;;;;5089423;28;20111;-39
2021/12/30 02:42:15;;;;;;;83.90;10.20;;;7.30;99.90;;;;;;5089750;28;20077;-39
2021/12/30 02:44:40;;;;;;;72.38;9.77;;;8.20;99.90;;;;;;5071506;28;20043;-39
2021/12/30 02:47:06;;;;;;;73.35;10.50;;;8.30;99.90;;;;;;5089643;28;20051;-41
2021/12/30 02:49:32;;;;;;;83.20;11.27;;;7.30;99.90;;;;;;5089851;28;20406;-39
2021/12/30 02:51:58;;;;;;;85.80;16.13;;;7.70;99.90;;;;;;5089220;28;20047;-39
2021/12/30 02:54:23;;;;;;;88.43;15.05;;;7.60;99.90;;;;;;5089889;28;20032;-39
2021/12/30 02:56:49;;;;;;;92.70;17.52;;;7.40;99.90;;;;;;5089354;28;20482;-39
2021/12/30 02:59:16;;;;;;;79.65;16.10;;;7.40;99.90;;;;;;5089564;28;20043;-39
2021/12/30 03:01:42;;;;;;;90.78;20.40;;;7.40;99.90;;;;;;5089068;28;20048;-39
2021/12/30 03:04:07;;;;;;;104.20;21.13;;;7.40;99.90;;;;;;5089639;28;20039;-39
2021/12/30 03:06:33;;;;;;;116.40;24.67;;;7.50;99.90;;;;;;5089671;28;20608;-39
2021/12/30 03:09:00;;;;;;;102.00;22.40;;;8.00;99.90;;;;;;5089578;28;20044;-39
2021/12/30 03:11:27;;;;;;;113.30;26.23;;;7.70;99.90;;;;;;5089801;28;20051;-39
2021/12/30 03:13:54;;;;;;;122.43;26.90;;;8.20;99.90;;;;;;5093157;28;20044;-39
2021/12/30 03:16:29;;;;;;;123.15;28.25;;;7.90;99.90;;;;;;5093083;28;20040;-39
2021/12/30 03:18:57;;;;;;;131.48;30.08;;;9.10;99.90;;;;;;5093238;28;20040;-39
2021/12/30 03:21:24;;;;;;;141.10;30.10;;;8.80;99.90;;;;;;5093369;28;20052;-39
2021/12/30 03:23:51;;;;;;;132.07;32.63;;;8.30;99.90;;;;;;5093114;28;20405;-39
2021/12/30 03:26:18;;;;;;;133.98;30.38;;;8.30;99.90;;;;;;5093266;28;20044;-39
2021/12/30 03:28:44;;;;;;;135.75;35.88;;;8.40;99.90;;;;;;5093352;28;20087;-40
2021/12/30 03:31:12;;;;;;;121.68;29.63;;;9.40;99.90;;;;;;5093122;28;20510;-40
2021/12/30 03:33:38;;;;;;;130.00;32.10;;;8.40;99.90;;;;;;5092963;28;20178;-39
2021/12/30 03:36:06;;;;;;;129.13;31.23;;;8.50;99.90;;;;;;5092733;28;20115;-39
2021/12/30 03:38:37;;;;;;;156.60;37.50;;;8.50;99.90;;;;;;5089916;28;20383;-39
2021/12/30 03:41:05;;;;;;;161.88;38.95;;;8.60;99.90;;;;;;5092665;28;20047;-39
2021/12/30 03:43:31;;;;;;;147.55;36.70;;;9.50;99.90;;;;;;5092994;28;20040;-39
2021/12/30 03:45:57;;;;;;;144.48;34.72;;;8.40;99.90;;;;;;5092814;28;20394;-40
2021/12/30 03:48:31;;;;;;;135.80;33.92;;;8.60;99.90;;;;;;5092896;28;20044;-39
2021/12/30 03:50:57;;;;;;;136.52;35.65;;;9.40;99.90;;;;;;5092244;28;20047;-39
2021/12/30 03:53:22;;;;;;;127.57;32.40;;;9.40;99.90;;;;;;5092444;28;20040;-39
2021/12/30 03:55:51;;;;;;;118.95;32.40;;;8.70;99.90;;;;;;5092699;28;20036;-40
2021/12/30 03:58:17;;;;;;;134.63;31.95;;;8.70;99.90;;;;;;5092401;28;20036;-40
2021/12/30 04:00:43;;;;;;;130.73;33.85;;;8.80;99.90;;;;;;5092321;28;20474;-39
2021/12/30 04:03:09;;;;;;;133.30;32.03;;;8.80;99.90;;;;;;5092528;28;20463;-39
2021/12/30 04:05:35;;;;;;;129.45;31.85;;;8.70;99.90;;;;;;5092588;28;20102;-39
2021/12/30 04:08:01;;;;;;;123.95;31.48;;;8.80;99.90;;;;;;5092507;28;20040;-40
2021/12/30 04:10:27;;;;;;;117.53;31.48;;;8.90;99.90;;;;;;5092968;28;20048;-40
2021/12/30 04:12:53;;;;;;;129.32;31.08;;;8.90;99.90;;;;;;5092133;28;20105;-39
2021/12/30 04:15:19;;;;;;;118.53;29.77;;;8.80;99.90;;;;;;5092758;28;20447;-39
2021/12/30 04:17:45;;;;;;;127.65;29.60;;;8.90;99.90;;;;;;5092546;28;20394;-39
2021/12/30 04:20:13;;;;;;;111.43;27.38;;;8.80;99.90;;;;;;5092810;28;20044;-39
2021/12/30 04:22:40;;;;;;;140.55;31.88;;;9.20;99.90;;;;;;5092130;28;20379;-39
2021/12/30 04:25:09;;;;;;;116.40;28.92;;;8.80;99.90;;;;;;5091240;28;20405;-39
2021/12/30 04:27:35;;;;;;;126.20;29.65;;;8.90;99.90;;;;;;5091906;28;20056;-40
2021/12/30 04:30:04;;;;;;;130.48;29.40;;;8.90;99.90;;;;;;5092420;28;20532;-39
2021/12/30 04:32:29;;;;;;;122.43;29.13;;;8.90;99.90;;;;;;5092124;28;20451;-39
2021/12/30 04:34:55;;;;;;;119.13;28.60;;;8.90;99.90;;;;;;5092367;28;20119;-40
2021/12/30 04:37:21;;;;;;;120.78;27.98;;;8.90;99.90;;;;;;5088854;28;20653;-39
2021/12/30 04:39:46;;;;;;;108.05;27.70;;;8.90;99.90;;;;;;5091495;28;20560;-40
2021/12/30 04:42:13;;;;;;;119.90;29.77;;;11.10;99.90;;;;;;5092309;28;20052;-40
2021/12/30 04:44:39;;;;;;;123.38;29.17;;;9.00;99.90;;;;;;5092027;28;20044;-39
2021/12/30 04:47:05;;;;;;;119.93;29.10;;;9.10;99.90;;;;;;5091751;28;20409;-40
2021/12/30 04:49:30;;;;;;;102.15;24.45;;;9.10;99.90;;;;;;5092025;28;20044;-39
2021/12/30 04:51:56;;;;;;;123.43;30.75;;;9.20;99.90;;;;;;5091127;28;20066;-39
2021/12/30 04:54:22;;;;;;;128.77;31.05;;;9.20;99.90;;;;;;5073431;28;20051;-39
2021/12/30 04:56:48;;;;;;;122.55;29.17;;;9.20;99.90;;;;;;5091687;28;20117;-39
2021/12/30 04:59:13;;;;;;;135.07;31.77;;;9.90;99.90;;;;;;5091173;28;20036;-40
2021/12/30 05:01:39;;;;;;;132.20;30.27;;;9.20;99.90;;;;;;5091310;28;20124;-40
2021/12/30 05:04:06;;;;;;;122.53;29.67;;;9.40;99.90;;;;;;5091185;28;20044;-39
2021/12/30 05:06:34;;;;;;;133.15;31.80;;;9.50;99.90;;;;;;5091582;28;20111;-39
2021/12/30 05:09:00;;;;;;;144.52;32.88;;;9.50;99.90;;;;;;5090931;28;20035;-40
2021/12/30 05:11:26;;;;;;;132.23;32.85;;;9.90;99.90;;;;;;5091357;28;20101;-39
2021/12/30 05:13:51;;;;;;;112.65;31.50;;;10.00;99.90;;;;;;5091127;28;20047;-39
2021/12/30 05:16:18;;;;;;;152.02;35.13;;;9.50;99.90;;;;;;5091213;28;20053;-40
2021/12/30 05:18:44;;;;;;;127.57;31.58;;;9.70;99.90;;;;;;5072914;28;20052;-39
2021/12/30 05:21:10;;;;;;;111.35;29.88;;;9.90;99.90;;;;;;5091086;28;20101;-39
2021/12/30 05:23:36;;;;;;;115.25;29.50;;;9.80;99.90;;;;;;5090887;28;20101;-40
2021/12/30 05:26:03;;;;;;;108.65;29.15;;;9.80;99.90;;;;;;5090484;28;20500;-39
2021/12/30 05:28:29;;;;;;;95.97;27.40;;;10.10;99.90;;;;;;5090925;28;20063;-40
2021/12/30 05:30:55;;;;;;;89.18;26.15;;;9.90;99.90;;;;;;5091367;28;20067;-39
2021/12/30 05:33:21;;;;;;;69.00;22.35;;;10.00;99.90;;;;;;5091012;28;20036;-39
2021/12/30 05:35:46;;;;;;;91.22;28.58;;;10.50;99.90;;;;;;5090643;28;20040;-39
2021/12/30 05:38:15;;;;;;;82.05;25.77;;;10.00;99.90;;;;;;5087161;28;20059;-40
2021/12/30 05:40:41;;;;;;;85.53;27.52;;;10.20;99.90;;;;;;5090916;28;20040;-40
2021/12/30 05:43:07;;;;;;;88.80;26.67;;;10.10;99.90;;;;;;5090583;28;20040;-40
2021/12/30 05:45:32;;;;;;;93.20;26.67;;;10.40;99.90;;;;;;5090604;28;20075;-40
2021/12/30 05:47:58;;;;;;;80.32;24.85;;;10.10;99.90;;;;;;5090487;28;20091;-40
2021/12/30 05:50:28;;;;;;;81.03;24.70;;;10.10;99.90;;;;;;5090891;28;20032;-39
2021/12/30 05:52:54;;;;;;;84.88;25.75;;;10.30;99.90;;;;;;5090537;28;20050;-40
2021/12/30 05:55:20;;;;;;;75.75;25.40;;;10.20;99.90;;;;;;5090450;28;20088;-40
2021/12/30 05:57:47;;;;;;;88.20;25.10;;;10.10;99.90;;;;;;5090652;28;20036;-40
2021/12/30 06:00:18;;;;;;;86.15;25.70;;;10.20;99.90;;;;;;5090050;28;20043;-40
2021/12/30 06:02:44;;;;;;;62.33;20.83;;;10.20;99.90;;;;;;5090210;28;20575;-40
2021/12/30 06:05:10;;;;;;;56.53;20.58;;;10.20;99.90;;;;;;5089984;28;20075;-40
2021/12/30 06:07:36;;;;;;;58.20;20.60;;;10.20;99.90;;;;;;5071948;28;20087;-40
2021/12/30 06:10:03;;;;;;;58.33;19.70;;;10.30;99.90;;;;;;5090038;28;20040;-40
2021/12/30 06:12:28;;;;;;;66.32;20.52;;;10.30;99.90;;;;;;5090121;28;20099;-40
2021/12/30 06:14:54;;;;;;;60.28;20.42;;;10.30;99.90;;;;;;5090185;28;20044;-39
2021/12/30 06:17:20;;;;;;;67.63;19.05;;;10.50;99.90;;;;;;5089919;28;20040;-40
2021/12/30 06:19:46;;;;;;;78.65;22.92;;;10.30;99.90;;;;;;5089673;28;20048;-40
2021/12/30 06:22:12;;;;;;;75.82;23.42;;;10.20;99.90;;;;;;5089628;28;20044;-40
2021/12/30 06:24:39;;;;;;;86.22;23.55;;;10.40;99.90;;;;;;5089818;28;20050;-40
2021/12/30 06:27:05;;;;;;;93.65;26.52;;;10.40;99.90;;;;;;5089681;28;20401;-40
2021/12/30 06:29:31;;;;;;;102.75;28.15;;;10.40;99.90;;;;;;5089970;28;20055;-40
2021/12/30 06:31:57;;;;;;;102.15;25.42;;;10.40;99.90;;;;;;5089661;28;20394;-40
2021/12/30 06:34:22;;;;;;;109.40;29.40;;;10.50;99.90;;;;;;5089555;28;20047;-40
2021/12/30 06:36:48;;;;;;;126.47;30.38;;;10.80;99.90;;;;;;5089948;28;20105;-40
2021/12/30 06:39:14;;;;;;;180.35;35.05;;;10.50;99.90;;;;;;5086714;28;20055;-39
2021/12/30 06:41:40;;;;;;;151.15;34.10;;;11.40;99.90;;;;;;5089824;28;20120;-40
2021/12/30 06:44:06;;;;;;;169.18;34.15;;;10.60;99.90;;;;;;5089465;28;20048;-40
2021/12/30 06:46:31;;;;;;;163.40;34.83;;;10.60;99.90;;;;;;5089278;28;20036;-40
2021/12/30 06:48:57;;;;;;;159.70;34.00;;;10.60;99.90;;;;;;5089516;28;20147;-40
2021/12/30 06:51:26;;;;;;;161.73;35.30;;;10.70;99.90;;;;;;5089038;28;20051;-40
2021/12/30 06:53:54;;;;;;;140.50;33.58;;;10.70;99.90;;;;;;5089494;28;20182;-40
2021/12/30 06:56:24;;;;;;;146.50;32.80;;;10.70;99.90;;;;;;5089563;28;20123;-40
2021/12/30 06:58:50;;;;;;;139.35;32.47;;;10.80;99.90;;;;;;5089555;28;20044;-40
2021/12/30 07:01:15;;;;;;;145.70;32.17;;;10.80;99.90;;;;;;5089300;28;20097;-40
2021/12/30 07:03:41;;;;;;;154.93;32.70;;;10.90;99.90;;;;;;5089592;28;20123;-40
2021/12/30 07:06:07;;;;;;;129.98;30.45;;;10.60;99.90;;;;;;5089351;28;20477;-40
2021/12/30 07:08:33;;;;;;;108.85;25.77;;;10.90;99.90;;;;;;5089441;28;20056;-40
2021/12/30 07:10:59;;;;;;;84.45;21.08;;;10.90;99.90;;;;;;5089482;28;20454;-40
2021/12/30 07:13:25;;;;;;;98.65;23.13;;;11.00;99.90;;;;;;5075447;28;20040;-40
2021/12/30 07:15:50;;;;;;;86.82;19.50;;;11.00;99.90;;;;;;5069122;28;20127;-40
2021/12/30 07:18:16;;;;;;;86.88;21.20;;;10.90;99.90;;;;;;5068868;28;20498;-39
2021/12/30 07:20:42;;;;;;;77.63;18.80;;;11.20;99.90;;;;;;5069126;28;20082;-40
2021/12/30 07:23:07;;;;;;;69.82;17.92;;;10.90;99.90;;;;;;5068962;28;20047;-40
2021/12/30 07:25:33;;;;;;;77.43;19.02;;;11.00;99.90;;;;;;5068691;28;20036;-40
2021/12/30 07:28:01;;;;;;;77.10;17.80;;;11.00;99.90;;;;;;5069019;28;20064;-39
2021/12/30 07:30:27;;;;;;;65.53;16.88;;;11.20;99.90;;;;;;5068926;28;20397;-40
2021/12/30 07:32:53;;;;;;;60.70;14.55;;;11.00;99.90;;;;;;5068822;28;20079;-40
2021/12/30 07:35:20;;;;;;;72.80;16.45;;;11.00;99.90;;;;;;5068506;28;20036;-39
2021/12/30 07:37:47;;;;;;;54.30;16.23;;;11.10;99.90;;;;;;5068901;28;20040;-39
2021/12/30 07:40:14;;;;;;;49.70;13.60;;;11.00;99.90;;;;;;5050951;28;20502;-40
2021/12/30 07:42:40;;;;;;;62.17;14.93;;;11.10;99.90;;;;;;5068720;28;20080;-40
2021/12/30 07:45:06;;;;;;;59.55;14.23;;;11.20;99.90;;;;;;5069041;28;20082;-40
2021/12/30 07:47:32;;;;;;;49.67;12.77;;;11.10;99.90;;;;;;5068868;28;20048;-40
2021/12/30 07:49:58;;;;;;;43.90;11.55;;;11.10;99.90;;;;;;5068713;28;20119;-40
2021/12/30 07:52:24;;;;;;;40.35;10.98;;;11.10;99.90;;;;;;5068760;28;20123;-39
2021/12/30 07:54:49;;;;;;;29.40;8.93;;;11.10;99.90;;;;;;5068883;28;20048;-40
2021/12/30 07:57:21;;;;;;;34.30;9.38;;;11.10;99.90;;;;;;5068792;28;20040;-40
2021/12/30 07:59:51;;;;;;;38.37;9.90;;;11.10;99.90;;;;;;5071153;28;20055;-39
2021/12/30 08:02:17;;;;;;;37.58;8.75;;;11.20;99.90;;;;;;5072275;28;20277;-39
2021/12/30 08:04:43;;;;;;;31.48;8.52;;;11.10;99.90;;;;;;5071839;28;20040;-40
2021/12/30 08:07:09;;;;;;;29.58;8.23;;;11.10;99.90;;;;;;5072319;28;20094;-40
2021/12/30 08:09:35;;;;;;;27.48;7.30;;;11.20;99.90;;;;;;5071869;28;20040;-40
2021/12/30 08:12:01;;;;;;;23.88;6.88;;;11.20;99.90;;;;;;5072116;28;20040;-40
2021/12/30 08:14:27;;;;;;;21.52;5.88;;;11.20;99.90;;;;;;5071948;28;20094;-40
2021/12/30 08:16:54;;;;;;;13.40;4.07;;;11.20;99.90;;;;;;5072056;28;20062;-40
2021/12/30 08:19:19;;;;;;;16.40;4.82;;;11.20;99.90;;;;;;5072329;28;20047;-40
2021/12/30 08:21:45;;;;;;;13.57;4.38;;;11.20;99.90;;;;;;5072122;28;20044;-40
2021/12/30 08:24:12;;;;;;;15.77;4.72;;;11.20;99.90;;;;;;5072138;28;20529;-40
2021/12/30 08:26:39;;;;;;;12.23;3.70;;;11.20;99.90;;;;;;5071643;28;20040;-40
2021/12/30 08:29:05;;;;;;;12.38;4.13;;;11.30;99.90;;;;;;5062479;28;20458;-40
2021/12/30 08:31:34;;;;;;;12.38;3.85;;;11.20;99.90;;;;;;5057301;28;20055;-40
2021/12/30 08:34:00;;;;;;;12.20;3.75;;;11.30;99.90;;;;;;5052436;28;20044;-40
2021/12/30 08:36:26;;;;;;;12.32;4.32;;;9.90;99.90;;;;;;5051223;28;20404;-39
2021/12/30 08:38:51;;;;;;;8.00;3.10;;;11.30;99.90;;;;;;5066718;28;20052;-40
2021/12/30 08:41:17;;;;;;;11.02;3.88;;;12.20;99.90;;;;;;5071520;28;20085;-40
2021/12/30 08:43:43;;;;;;;9.25;3.90;;;11.40;99.90;;;;;;5071371;28;20476;-40
2021/12/30 08:46:09;;;;;;;7.78;3.58;;;11.40;99.90;;;;;;5071207;28;20040;-40
2021/12/30 08:48:36;;;;;;;8.73;3.38;;;11.40;99.90;;;;;;5070644;28;20047;-40
2021/12/30 08:51:03;;;;;;;13.10;3.83;;;11.50;99.90;;;;;;5071027;28;20044;-40
2021/12/30 08:53:29;;;;;;;7.60;3.22;;;11.40;99.90;;;;;;5070801;28;20123;-40
2021/12/30 08:55:55;;;;;;;9.07;3.58;;;11.40;99.90;;;;;;5071135;28;20444;-40
2021/12/30 08:58:21;;;;;;;7.68;3.33;;;11.40;99.90;;;;;;5070405;28;20041;-40
2021/12/30 09:00:47;;;;;;;7.65;3.58;;;11.50;99.90;;;;;;5070545;28;20090;-41
2021/12/30 09:03:15;;;;;;;10.85;3.50;;;11.30;99.90;;;;;;5070563;28;20482;-40
2021/12/30 09:05:41;;;;;;;9.05;4.43;;;11.60;99.90;;;;;;5070523;28;20052;-40
2021/12/30 09:08:07;;;;;;;13.95;5.25;;;11.50;99.90;;;;;;5070896;28;20040;-40
2021/12/30 09:10:37;;;;;;;12.30;5.68;;;11.50;99.90;;;;;;5070288;28;20067;-40
2021/12/30 09:13:04;;;;;;;13.35;6.00;;;11.80;99.90;;;;;;5070725;28;20490;-40
2021/12/30 09:15:30;;;;;;;15.95;6.55;;;11.70;99.90;;;;;;5052443;28;20032;-40
2021/12/30 09:17:57;;;;;;;22.02;8.13;;;11.70;99.90;;;;;;5070464;28;20043;-40
2021/12/30 09:20:23;;;;;;;24.65;8.60;;;11.70;99.90;;;;;;5070174;28;20473;-40
2021/12/30 09:22:52;;;;;;;22.55;8.75;;;11.60;99.90;;;;;;5069935;28;20036;-40
2021/12/30 09:25:22;;;;;;;20.83;8.50;;;11.90;99.90;;;;;;5070367;28;20056;-40
2021/12/30 09:27:48;;;;;;;25.20;8.63;;;12.10;99.90;;;;;;5068462;28;20094;-40
2021/12/30 09:30:15;;;;;;;20.83;7.13;;;11.70;99.90;;;;;;5069992;28;20438;-40
2021/12/30 09:32:43;;;;;;;18.90;7.10;;;11.70;99.90;;;;;;5070186;28;20133;-40
2021/12/30 09:35:11;;;;;;;19.85;6.63;;;11.80;99.90;;;;;;5070356;28;20174;-42
2021/12/30 09:37:36;;;;;;;19.00;5.65;;;12.10;99.90;;;;;;5070165;28;20033;-41
2021/12/30 09:40:04;;;;;;;23.85;7.75;;;11.80;99.90;;;;;;5070156;28;20087;-41
2021/12/30 09:42:31;;;;;;;17.83;5.15;;;11.90;99.90;;;;;;5070704;28;20368;-41
2021/12/30 09:44:56;;;;;;;19.15;5.25;;;11.90;99.90;;;;;;5070016;28;20521;-43
2021/12/30 09:47:22;;;;;;;23.60;5.70;;;11.80;99.90;;;;;;5070581;28;20048;-41
2021/12/30 09:49:50;;;;;;;16.00;6.43;;;12.10;99.90;;;;;;5070634;28;20044;-41
2021/12/30 09:52:16;;;;;;;20.92;5.55;;;12.10;99.90;;;;;;5070668;28;20098;-41
2021/12/30 09:54:42;;;;;;;18.60;6.28;;;11.80;99.90;;;;;;5070392;28;20531;-41
2021/12/30 09:57:08;;;;;;;23.23;9.18;;;11.90;99.90;;;;;;5069834;28;20040;-41
2021/12/30 09:59:34;;;;;;;17.58;6.43;;;11.90;99.90;;;;;;5070051;28;20113;-41
2021/12/30 10:02:00;;;;;;;19.55;7.10;;;12.00;99.90;;;;;;5069755;28;20044;-41
2021/12/30 10:04:31;;;;;;;17.45;6.57;;;11.90;99.90;;;;;;5070037;28;20048;-41
2021/12/30 10:06:58;;;;;;;20.40;6.30;;;12.00;99.90;;;;;;5035054;28;20142;-44
2021/12/30 10:09:46;;;;;;;21.95;7.90;;;12.00;99.90;;;;;;4354251;28;10000831;-41
2021/12/30 10:12:13;;;;;;;19.10;5.88;;;11.90;99.90;;;;;;5068064;28;20091;-42
2021/12/30 10:14:39;;;;;;;15.43;4.35;;;11.90;99.90;;;;;;5068288;28;20122;-42
2021/12/30 10:17:21;;;;;;;22.67;5.63;;;11.90;99.90;;;;;;5068582;28;20052;-43
2021/12/30 10:19:48;;;;;;;21.85;5.38;;;11.90;99.90;;;;;;5068185;28;20036;-43
2021/12/30 10:22:17;;;;;;;23.20;5.30;;;11.90;99.90;;;;;;5067752;28;20040;-42
2021/12/30 10:24:44;;;;;;;14.23;4.60;;;11.90;99.90;;;;;;5068439;28;20036;-42
2021/12/30 10:27:25;;;;;;;13.55;4.05;;;11.90;99.90;;;;;;5068112;28;20383;-42
2021/12/30 10:29:51;;;;;;;16.10;4.78;;;11.90;99.90;;;;;;5065572;28;20068;-41
2021/12/30 10:32:25;;;;;;;10.65;3.00;;;11.80;99.90;;;;;;5068053;28;20118;-42
2021/12/30 10:35:12;;;;;;;11.75;3.35;;;11.90;99.90;;;;;;5068499;28;20394;-43
2021/12/30 10:37:43;;;;;;;17.83;4.35;;;11.90;99.90;;;;;;5068297;28;20040;-42
2021/12/30 10:40:36;;;;;;;13.88;2.47;;;11.90;99.90;;;;;;5068422;28;20102;-41
2021/12/30 10:43:30;;;;;;;21.13;3.67;;;11.90;99.90;;;;;;5065143;28;20490;-42
2021/12/30 10:46:22;;;;;;;23.33;3.55;;;11.90;99.90;;;;;;5067774;28;20044;-41
2021/12/30 10:48:56;;;;;;;;;;;11.80;99.90;;;;;;5068321;28;20045;-41
2021/12/30 10:51:24;;;;;;;16.05;3.03;;;11.80;99.90;;;;;;5067612;28;19924;-43
2021/12/30 10:53:52;;;;;;;23.02;4.30;;;11.80;99.90;;;;;;5065560;28;20381;-42
2021/12/30 10:56:25;;;;;;;30.40;5.75;;;12.00;99.90;;;;;;5067688;28;20478;-42
2021/12/30 10:58:54;;;;;;;26.20;4.15;;;11.90;99.90;;;;;;5049672;28;20482;-43
2021/12/30 11:01:21;;;;;;;18.70;3.97;;;11.90;99.90;;;;;;5068014;28;20040;-42
2021/12/30 11:03:59;;;;;;;24.38;5.35;;;11.90;99.90;;;;;;5067588;28;20048;-41
2021/12/30 11:06:25;;;;;;;24.42;5.15;;;11.90;99.90;;;;;;5067679;28;20044;-42
2021/12/30 11:09:16;;;;;;;27.05;5.70;;;11.90;99.90;;;;;;5067528;28;20043;-42
2021/12/30 11:11:58;;;;;;;22.92;5.07;;;11.90;99.90;;;;;;5067963;28;20044;-42
2021/12/30 11:14:34;;;;;;;22.45;3.85;;;11.90;99.90;;;;;;5067830;28;20059;-42
2021/12/30 11:17:09;;;;;;;37.20;6.38;;;11.90;99.90;;;;;;5067372;28;20470;-42
2021/12/30 11:19:52;;;;;;;37.35;7.38;;;12.00;99.90;;;;;;5067713;28;20052;-41
2021/12/30 11:22:24;;;;;;;29.10;5.55;;;12.00;99.90;;;;;;5067457;28;20490;-41
2021/12/30 11:24:53;;;;;;;26.65;6.45;;;11.90;99.90;;;;;;5066792;28;20063;-42
2021/12/30 11:27:19;;;;;;;31.17;6.22;;;11.80;99.90;;;;;;5067845;28;20036;-44
2021/12/30 11:29:48;;;;;;;40.53;7.10;;;12.00;99.90;;;;;;5033776;28;20088;-43
2021/12/30 11:32:20;;;;;;;37.20;6.57;;;11.80;99.90;;;;;;5047322;28;20045;-42
2021/12/30 11:34:47;;;;;;;31.35;5.70;;;11.90;99.90;;;;;;5053452;28;20071;-43
2021/12/30 11:37:14;;;;;;;33.28;4.63;;;11.80;99.90;;;;;;5060916;28;20116;-42
2021/12/30 11:39:42;;;;;;;37.90;6.63;;;11.90;99.90;;;;;;5060563;28;20102;-43
2021/12/30 11:42:36;;;;;;;37.97;5.13;;;11.80;99.90;;;;;;5060013;28;20115;-42
2021/12/30 11:45:08;;;;;;;34.78;5.95;;;11.80;99.90;;;;;;5060353;28;20491;-43
2021/12/30 11:47:34;;;;;;;36.53;5.22;;;11.70;99.90;;;;;;5059760;28;20095;-43
2021/12/30 11:50:27;;;;;;;40.22;5.90;;;11.80;99.90;;;;;;5070924;28;20443;-43
2021/12/30 11:52:56;;;;;;;35.95;6.45;;;11.70;99.90;;;;;;5058777;28;20052;-44
2021/12/30 11:55:43;;;;;;;29.63;6.53;;;11.80;99.90;;;;;;5059154;28;20055;-43
2021/12/30 12:01:11;;;;;;;38.03;7.90;;;12.00;99.90;;;;;;5053111;28;20076;-42
2021/12/30 12:03:57;;;;;;;35.90;5.70;;;11.70;99.90;;;;;;5066370;28;20399;-41
2021/12/30 12:06:31;;;;;;;38.42;6.68;;;11.70;99.90;;;;;;5066747;28;20477;-42
2021/12/30 12:09:13;;;;;;;41.92;7.35;;;11.80;99.90;;;;;;5065755;28;20090;-43
2021/12/30 12:11:43;;;;;;;;;;;11.70;99.90;;;;;;5052765;28;20059;-44
2021/12/30 12:14:18;;;;;;;37.80;7.05;;;11.80;99.90;;;;;;5049568;28;19927;-43
2021/12/30 12:16:53;;;;;;;41.88;7.40;;;11.70;99.90;;;;;;5052329;28;20045;-41
2021/12/30 12:19:48;;;;;;;42.90;8.85;;;11.70;99.90;;;;;;5053556;28;20415;-42
2021/12/30 12:22:17;;;;;;;44.13;7.47;;;11.70;99.90;;;;;;5046727;28;20135;-42
2021/12/30 12:24:43;;;;;;;40.28;6.85;;;11.70;99.90;;;;;;5060726;28;20131;-42
2021/12/30 12:27:18;;;;;;;37.30;7.13;;;11.80;99.90;;;;;;5061130;28;20051;-42
2021/12/30 12:29:55;;;;;;;38.55;6.10;;;11.70;99.90;;;;;;5057698;28;20056;-42
2021/12/30 12:32:29;;;;;;;35.28;6.38;;;11.70;99.90;;;;;;5055704;28;20106;-41
2021/12/30 12:34:58;;;;;;;48.22;8.07;;;11.80;99.90;;;;;;5055025;28;20037;-42
2021/12/30 12:37:32;;;;;;;35.38;4.95;;;11.80;99.90;;;;;;5057215;28;20028;-42
2021/12/30 12:40:01;;;;;;;43.15;6.93;;;12.20;99.90;;;;;;5059686;28;20391;-43